Time;durP1;ratioP1;P1;durP2;ratioP2;P2;SDS_P1;SDS_P2;PMS_P1;PMS_P2;Temp;Humidity;BMP_temperature;BMP_pressure;BME280_temperature;BME280_humidity;BME280_pressure;Samples;Min_cycle;Max_cycle;Signal;HPM_P1;HPM_P2
2021/01/26 00:01:34;;;;;;;3.25;1.10;;;4.50;83.80;;;;;;5009943;28;20502;-84
2021/01/26 00:04:00;;;;;;;3.25;1.33;;;4.50;83.80;;;;;;5012141;28;20430;-84
2021/01/26 00:06:25;;;;;;;4.30;1.20;;;4.50;83.80;;;;;;5012254;28;20315;-84
2021/01/26 00:08:51;;;;;;;3.63;1.20;;;4.50;83.90;;;;;;5010907;28;20103;-85
2021/01/26 00:11:16;;;;;;;4.38;1.23;;;4.50;83.90;;;;;;5007130;28;20030;-86
2021/01/26 00:13:42;;;;;;;3.85;1.20;;;4.60;83.90;;;;;;5011930;28;20123;-85
2021/01/26 00:16:08;;;;;;;6.35;1.40;;;4.60;83.90;;;;;;5002842;28;20018;-85
2021/01/26 00:18:33;;;;;;;5.60;1.92;;;4.60;83.90;;;;;;4994469;28;20033;-84
2021/01/26 00:21:01;;;;;;;4.93;1.58;;;4.60;84.70;;;;;;5012682;28;20110;-85
2021/01/26 00:23:27;;;;;;;4.68;1.60;;;4.60;84.40;;;;;;5007636;28;20063;-85
2021/01/26 00:25:53;;;;;;;8.45;2.03;;;4.60;84.20;;;;;;5011668;28;20025;-85
2021/01/26 00:28:18;;;;;;;3.80;1.63;;;4.60;84.30;;;;;;5009671;28;20044;-84
2021/01/26 00:30:44;;;;;;;4.15;1.40;;;4.70;84.20;;;;;;5010086;28;20072;-86
2021/01/26 00:33:16;;;;;;;6.47;1.70;;;4.70;84.00;;;;;;5004771;28;20093;-84
2021/01/26 00:35:42;;;;;;;4.82;1.30;;;4.70;84.00;;;;;;5006479;28;20029;-84
2021/01/26 00:38:09;;;;;;;8.20;1.77;;;4.70;84.00;;;;;;5007333;28;20105;-85
2021/01/26 00:40:34;;;;;;;5.05;1.67;;;4.70;84.10;;;;;;5010338;28;20482;-85
2021/01/26 00:43:00;;;;;;;4.35;1.60;;;4.60;84.30;;;;;;5012295;28;20037;-85
2021/01/26 00:45:27;;;;;;;4.40;1.80;;;4.60;84.40;;;;;;5017195;28;20036;-85
2021/01/26 00:47:53;;;;;;;3.67;1.40;;;4.60;84.30;;;;;;5025883;28;20037;-84
2021/01/26 00:50:20;;;;;;;3.08;1.10;;;4.60;84.40;;;;;;5019538;28;20037;-84
2021/01/26 00:52:45;;;;;;;3.65;1.40;;;4.60;84.30;;;;;;5024653;28;20037;-84
2021/01/26 00:55:12;;;;;;;6.07;1.48;;;4.60;84.30;;;;;;5022979;28;20506;-85
2021/01/26 00:57:39;;;;;;;2.83;1.38;;;4.60;84.40;;;;;;5012368;28;20040;-86
2021/01/26 01:00:07;;;;;;;4.57;1.50;;;4.60;84.40;;;;;;5024810;28;20071;-84
2021/01/26 01:02:33;;;;;;;3.50;1.38;;;4.60;84.30;;;;;;5005757;28;20038;-84
2021/01/26 01:04:59;;;;;;;3.78;1.38;;;4.60;84.20;;;;;;5019037;28;20045;-83
2021/01/26 01:07:25;;;;;;;4.15;1.55;;;4.60;84.30;;;;;;5032938;28;20025;-84
2021/01/26 01:09:50;;;;;;;4.10;1.20;;;4.60;84.20;;;;;;5025733;28;20085;-84
2021/01/26 01:12:16;;;;;;;5.68;1.30;;;4.60;84.10;;;;;;5018992;28;20021;-85
2021/01/26 01:14:42;;;;;;;3.85;1.40;;;4.60;84.20;;;;;;5015450;28;20033;-86
2021/01/26 01:17:08;;;;;;;3.60;1.33;;;4.50;84.10;;;;;;5019311;28;20042;-86
2021/01/26 01:19:34;;;;;;;5.47;1.60;;;4.50;84.10;;;;;;5025753;28;20028;-86
2021/01/26 01:21:59;;;;;;;7.45;1.63;;;4.50;84.10;;;;;;5021073;28;20101;-84
2021/01/26 01:24:25;;;;;;;3.70;1.33;;;4.50;84.20;;;;;;5017955;28;20041;-84
2021/01/26 01:26:50;;;;;;;5.45;1.58;;;4.50;84.20;;;;;;5019143;28;20021;-84
2021/01/26 01:29:16;;;;;;;8.43;1.40;;;4.40;84.30;;;;;;5015534;28;20073;-85
2021/01/26 01:31:42;;;;;;;3.70;1.23;;;4.40;84.30;;;;;;5014171;28;20025;-84
2021/01/26 01:34:08;;;;;;;6.15;1.80;;;4.40;84.40;;;;;;5012502;28;20084;-85
2021/01/26 01:36:35;;;;;;;5.10;1.70;;;4.40;84.40;;;;;;5013163;28;20171;-85
2021/01/26 01:39:06;;;;;;;5.47;1.58;;;4.40;84.50;;;;;;5012455;28;20091;-85
2021/01/26 01:41:33;;;;;;;5.20;1.30;;;4.50;84.40;;;;;;5008157;28;20494;-85
2021/01/26 01:43:59;;;;;;;6.57;1.42;;;4.50;84.40;;;;;;5010472;28;20030;-86
2021/01/26 01:46:28;;;;;;;6.00;1.40;;;4.50;84.40;;;;;;5006339;28;20037;-86
2021/01/26 01:48:57;;;;;;;4.22;1.20;;;4.50;84.40;;;;;;5022386;28;20033;-86
2021/01/26 01:51:24;;;;;;;3.65;1.42;;;4.50;84.40;;;;;;5010655;28;20028;-86
2021/01/26 01:53:59;;;;;;;5.40;1.50;;;4.50;84.40;;;;;;5001634;28;20036;-86
2021/01/26 01:56:42;;;;;;;5.05;1.10;;;4.50;84.50;;;;;;5008392;28;20026;-86
2021/01/26 01:59:19;;;;;;;3.10;1.10;;;4.50;84.40;;;;;;5006647;28;20041;-87
2021/01/26 02:01:46;;;;;;;5.07;1.35;;;4.50;84.30;;;;;;5012004;28;20137;-87
2021/01/26 02:04:15;;;;;;;6.53;1.27;;;4.50;84.30;;;;;;5010471;28;20052;-86
2021/01/26 02:06:44;;;;;;;7.55;1.50;;;4.60;84.10;;;;;;5002170;28;20074;-86
2021/01/26 02:09:14;;;;;;;5.03;1.20;;;4.60;84.00;;;;;;5011665;28;20128;-86
2021/01/26 02:11:41;;;;;;;4.53;1.38;;;4.70;83.90;;;;;;5003944;28;20049;-85
2021/01/26 02:14:06;;;;;;;2.80;1.15;;;4.70;83.80;;;;;;5012195;28;20506;-86
2021/01/26 02:17:03;;;;;;;4.63;0.90;;;4.70;83.70;;;;;;5004486;28;20029;-86
2021/01/26 02:20:11;;;;;;;4.53;0.80;;;4.70;83.50;;;;;;5013282;28;20049;-86
2021/01/26 02:23:09;;;;;;;3.67;1.10;;;4.70;83.40;;;;;;5014241;28;20555;-86
2021/01/26 02:26:11;;;;;;;2.85;0.80;;;4.80;83.40;;;;;;5015450;28;20026;-86
2021/01/26 02:28:49;;;;;;;2.35;0.70;;;4.70;83.40;;;;;;5002970;28;20045;-85
2021/01/26 02:31:37;;;;;;;3.25;0.98;;;4.70;83.30;;;;;;5013093;28;20041;-84
2021/01/26 02:34:39;;;;;;;3.45;0.82;;;4.70;83.30;;;;;;5010505;28;20107;-84
2021/01/26 02:37:54;;;;;;;6.05;1.02;;;4.70;83.30;;;;;;5010574;28;20030;-85
2021/01/26 02:40:23;;;;;;;4.82;1.20;;;4.60;83.20;;;;;;5012220;28;20566;-85
2021/01/26 02:43:12;;;;;;;3.63;1.17;;;4.70;83.10;;;;;;4995577;28;20030;-84
2021/01/26 02:45:47;;;;;;;3.13;0.80;;;4.60;83.20;;;;;;5009240;28;20109;-85
2021/01/26 02:48:40;;;;;;;3.67;1.10;;;4.60;83.20;;;;;;5015641;28;20069;-85
2021/01/26 02:51:11;;;;;;;3.15;1.10;;;4.60;83.20;;;;;;5018255;28;20026;-84
2021/01/26 02:54:01;;;;;;;5.00;1.27;;;4.60;83.20;;;;;;5014196;28;20029;-85
2021/01/26 02:56:41;;;;;;;4.90;1.38;;;4.60;83.10;;;;;;5010171;28;20594;-85
2021/01/26 02:59:18;;;;;;;4.18;1.08;;;4.60;83.10;;;;;;5011963;28;20029;-85
2021/01/26 03:01:54;;;;;;;3.55;1.00;;;4.60;83.00;;;;;;5012302;28;20482;-85
2021/01/26 03:04:50;;;;;;;4.20;1.30;;;4.70;83.00;;;;;;5013440;28;20028;-85
2021/01/26 03:07:19;;;;;;;4.55;1.00;;;4.70;82.90;;;;;;5001257;28;20054;-86
2021/01/26 03:09:51;;;;;;;4.38;1.20;;;4.70;82.90;;;;;;5013054;28;20510;-84
2021/01/26 03:12:24;;;;;;;3.65;1.00;;;4.60;82.90;;;;;;5005111;28;20026;-84
2021/01/26 03:14:58;;;;;;;3.95;0.75;;;4.70;83.00;;;;;;5014432;28;20135;-84
2021/01/26 03:17:47;;;;;;;2.92;1.02;;;4.70;82.90;;;;;;5013484;28;20031;-84
2021/01/26 03:20:27;;;;;;;2.33;0.75;;;4.60;83.00;;;;;;5003991;28;20077;-84
2021/01/26 03:22:55;;;;;;;3.22;0.88;;;4.60;83.00;;;;;;5010057;28;20125;-85
2021/01/26 03:25:24;;;;;;;4.20;1.00;;;4.60;83.10;;;;;;5026239;28;20017;-85
2021/01/26 03:27:53;;;;;;;8.73;1.38;;;4.60;83.20;;;;;;5034560;28;20049;-85
2021/01/26 03:30:32;;;;;;;4.22;0.90;;;4.50;83.20;;;;;;5027055;28;20033;-87
2021/01/26 03:33:07;;;;;;;2.20;0.68;;;4.50;83.40;;;;;;5010500;28;20511;-84
2021/01/26 03:35:33;;;;;;;4.32;1.00;;;4.50;83.50;;;;;;5020973;28;20022;-85
2021/01/26 03:38:09;;;;;;;4.40;1.23;;;4.40;83.50;;;;;;5031568;28;20061;-84
2021/01/26 03:40:35;;;;;;;3.95;0.98;;;4.40;83.60;;;;;;5031068;28;20029;-84
2021/01/26 03:43:01;;;;;;;3.60;1.00;;;4.40;83.60;;;;;;5013172;28;20029;-84
2021/01/26 03:45:26;;;;;;;4.28;0.70;;;4.30;83.60;;;;;;5014311;28;20026;-84
2021/01/26 03:48:05;;;;;;;4.60;1.25;;;4.30;83.70;;;;;;5010834;28;20030;-84
2021/01/26 03:50:59;;;;;;;4.47;1.55;;;4.30;83.80;;;;;;5023326;28;20030;-85
2021/01/26 03:53:46;;;;;;;2.47;0.90;;;4.30;83.90;;;;;;5002000;28;20064;-84
2021/01/26 03:56:36;;;;;;;3.95;1.02;;;4.30;83.80;;;;;;5012304;28;20471;-84
2021/01/26 03:59:16;;;;;;;1.60;0.70;;;4.40;83.80;;;;;;5013854;28;20034;-86
2021/01/26 04:01:49;;;;;;;2.25;0.75;;;4.40;83.80;;;;;;5009553;28;20471;-84
2021/01/26 04:04:32;;;;;;;4.38;1.02;;;4.40;83.80;;;;;;5011903;28;20071;-84
2021/01/26 04:07:17;;;;;;;3.40;1.02;;;4.40;83.80;;;;;;4996051;28;20136;-84
2021/01/26 04:09:51;;;;;;;3.85;1.15;;;4.40;83.70;;;;;;4999790;28;20046;-84
2021/01/26 04:12:26;;;;;;;2.72;0.85;;;4.40;83.70;;;;;;5007628;28;20361;-85
2021/01/26 04:15:09;;;;;;;5.05;1.15;;;4.40;83.70;;;;;;5002559;28;20048;-85
2021/01/26 04:17:39;;;;;;;2.05;0.80;;;4.50;83.70;;;;;;5010491;28;20045;-83
2021/01/26 04:20:09;;;;;;;7.07;1.10;;;4.50;83.70;;;;;;4997295;28;20022;-86
2021/01/26 04:22:35;;;;;;;5.05;1.25;;;4.50;84.20;;;;;;5001597;28;20030;-85
2021/01/26 04:25:20;;;;;;;3.70;0.93;;;4.50;83.60;;;;;;5010536;28;20038;-84
2021/01/26 04:27:46;;;;;;;2.20;1.00;;;4.60;83.60;;;;;;5010150;28;20132;-84
2021/01/26 04:30:12;;;;;;;5.57;1.80;;;4.60;83.50;;;;;;5009129;28;20435;-85
2021/01/26 04:32:38;;;;;;;4.18;1.00;;;4.60;83.60;;;;;;5012618;28;20034;-85
2021/01/26 04:35:04;;;;;;;3.25;1.00;;;4.60;83.60;;;;;;5009022;28;20028;-85
2021/01/26 04:37:30;;;;;;;4.40;0.98;;;4.60;83.60;;;;;;4992412;28;20133;-85
2021/01/26 04:39:55;;;;;;;6.75;1.08;;;4.60;83.60;;;;;;5007244;28;20527;-85
2021/01/26 04:42:23;;;;;;;3.47;0.95;;;4.70;83.70;;;;;;5002208;28;20095;-85
2021/01/26 04:44:59;;;;;;;1.85;0.80;;;4.70;83.70;;;;;;5010961;28;20404;-85
2021/01/26 04:47:36;;;;;;;11.18;1.60;;;4.70;83.70;;;;;;5016204;28;20057;-85
2021/01/26 04:50:39;;;;;;;5.75;1.30;;;4.70;83.80;;;;;;5009628;28;20038;-85
2021/01/26 04:53:35;;;;;;;5.97;1.23;;;4.70;83.90;;;;;;5009409;28;20083;-85
2021/01/26 04:56:25;;;;;;;4.25;1.20;;;4.70;83.80;;;;;;5010876;28;20572;-86
2021/01/26 04:59:15;;;;;;;2.20;0.82;;;4.70;83.90;;;;;;5009151;28;20100;-85
2021/01/26 05:02:20;;;;;;;3.95;1.40;;;4.60;83.90;;;;;;5006231;28;20033;-86
2021/01/26 05:05:04;;;;;;;4.30;1.30;;;4.70;84.00;;;;;;5008931;28;20066;-86
2021/01/26 05:07:36;;;;;;;3.00;1.00;;;4.70;84.00;;;;;;5006521;28;20108;-86
2021/01/26 05:10:06;;;;;;;6.70;1.23;;;4.70;84.00;;;;;;5003985;28;20164;-85
2021/01/26 05:12:44;;;;;;;6.72;1.40;;;4.80;84.10;;;;;;5010284;28;20084;-85
2021/01/26 05:15:18;;;;;;;4.35;1.20;;;4.70;84.00;;;;;;5005077;28;20092;-85
2021/01/26 05:17:51;;;;;;;8.88;1.38;;;4.80;84.10;;;;;;5010132;28;20022;-84
2021/01/26 05:20:25;;;;;;;3.33;1.20;;;4.80;84.10;;;;;;5009198;28;20475;-84
2021/01/26 05:23:05;;;;;;;5.60;1.30;;;4.90;84.10;;;;;;5008431;28;20580;-85
2021/01/26 05:25:32;;;;;;;5.25;1.20;;;4.90;84.00;;;;;;5005574;28;20201;-85
2021/01/26 05:27:58;;;;;;;3.83;1.00;;;4.90;84.00;;;;;;5009252;28;20079;-83
2021/01/26 05:30:29;;;;;;;3.30;1.00;;;4.90;84.00;;;;;;5006781;28;20476;-84
2021/01/26 05:33:02;;;;;;;3.60;0.97;;;5.00;83.90;;;;;;5009853;28;20498;-84
2021/01/26 05:35:28;;;;;;;4.63;1.15;;;5.00;83.90;;;;;;5009953;28;20526;-84
2021/01/26 05:37:55;;;;;;;3.95;1.20;;;5.00;83.80;;;;;;5010747;28;20136;-84
2021/01/26 05:40:31;;;;;;;8.07;1.65;;;5.00;84.00;;;;;;5007459;28;20026;-85
2021/01/26 05:42:59;;;;;;;2.95;1.08;;;5.00;84.10;;;;;;5008368;28;20028;-86
2021/01/26 05:45:38;;;;;;;4.85;1.25;;;5.00;84.10;;;;;;5004998;28;20026;-86
2021/01/26 05:48:11;;;;;;;3.63;0.98;;;5.00;84.10;;;;;;5005267;28;20336;-85
2021/01/26 05:50:38;;;;;;;6.15;1.42;;;5.00;84.10;;;;;;5022561;28;20022;-85
2021/01/26 05:53:27;;;;;;;5.18;1.65;;;5.10;84.20;;;;;;5002261;28;20511;-86
2021/01/26 05:56:08;;;;;;;6.40;1.10;;;5.00;84.20;;;;;;5006555;28;20034;-86
2021/01/26 05:58:35;;;;;;;3.63;1.05;;;5.00;84.30;;;;;;5006060;28;20037;-85
2021/01/26 06:01:05;;;;;;;6.70;1.25;;;5.00;84.30;;;;;;5013051;28;20033;-84
2021/01/26 06:03:31;;;;;;;5.43;1.20;;;5.00;84.40;;;;;;5007915;28;20060;-83
2021/01/26 06:06:10;;;;;;;4.28;1.30;;;5.00;84.40;;;;;;5001119;28;20518;-83
2021/01/26 06:08:54;;;;;;;7.18;1.25;;;5.00;84.60;;;;;;5008656;28;20058;-84
2021/01/26 06:11:31;;;;;;;6.90;1.13;;;5.00;84.60;;;;;;5008679;28;20534;-83
2021/01/26 06:14:15;;;;;;;4.15;1.10;;;5.00;84.60;;;;;;5010023;28;20084;-84
2021/01/26 06:16:42;;;;;;;3.35;1.00;;;5.20;84.60;;;;;;5009360;28;20026;-83
2021/01/26 06:19:13;;;;;;;2.97;0.88;;;5.10;84.40;;;;;;5008863;28;20029;-83
2021/01/26 06:21:57;;;;;;;2.55;1.02;;;5.00;84.40;;;;;;5008896;28;20056;-83
2021/01/26 06:24:25;;;;;;;3.00;0.93;;;5.10;84.40;;;;;;5008290;28;20036;-83
2021/01/26 06:27:06;;;;;;;4.97;1.20;;;5.10;84.40;;;;;;5009192;28;20040;-83
2021/01/26 06:29:47;;;;;;;2.78;0.90;;;5.10;84.50;;;;;;5007414;28;20116;-84
2021/01/26 06:32:37;;;;;;;5.38;1.42;;;5.10;84.50;;;;;;4999177;28;20084;-83
2021/01/26 06:35:31;;;;;;;3.28;0.93;;;5.10;84.40;;;;;;5006597;28;20435;-84
2021/01/26 06:38:29;;;;;;;4.07;1.00;;;5.10;84.40;;;;;;4996488;28;20038;-84
2021/01/26 06:41:26;;;;;;;6.35;1.35;;;5.10;84.30;;;;;;5004641;28;20411;-83
2021/01/26 06:44:33;;;;;;;2.65;1.00;;;5.10;84.30;;;;;;4995664;28;20041;-84
2021/01/26 06:47:04;;;;;;;4.45;0.88;;;5.10;84.30;;;;;;5005838;28;20026;-83
2021/01/26 06:49:42;;;;;;;2.88;0.90;;;5.10;84.20;;;;;;5017891;28;20044;-84
2021/01/26 06:52:25;;;;;;;2.80;0.93;;;5.20;84.20;;;;;;5010060;28;20044;-87
2021/01/26 06:55:03;;;;;;;3.45;1.10;;;5.20;84.30;;;;;;5008656;28;20034;-87
2021/01/26 06:57:51;;;;;;;4.75;0.90;;;5.10;84.20;;;;;;5008203;28;20120;-85
2021/01/26 07:01:00;;;;;;;3.40;1.00;;;5.10;84.30;;;;;;4999284;28;20101;-83
2021/01/26 07:03:26;;;;;;;3.10;0.90;;;5.10;84.20;;;;;;5007673;28;20388;-84
2021/01/26 07:06:27;;;;;;;2.85;0.90;;;5.10;84.20;;;;;;5010490;28;20041;-84
2021/01/26 07:09:07;;;;;;;3.50;0.95;;;5.10;84.40;;;;;;5011084;28;20046;-86
2021/01/26 07:11:57;;;;;;;2.15;0.90;;;5.20;84.40;;;;;;5006602;28;20024;-86
2021/01/26 07:14:31;;;;;;;2.42;0.90;;;5.20;84.30;;;;;;5013717;28;20436;-85
2021/01/26 07:17:01;;;;;;;2.03;0.90;;;5.20;84.30;;;;;;5009169;28;20097;-87
2021/01/26 07:19:54;;;;;;;2.25;0.90;;;5.20;84.20;;;;;;5016886;28;20041;-85
2021/01/26 07:22:34;;;;;;;4.40;1.20;;;5.20;84.30;;;;;;5007552;28;20034;-86
2021/01/26 07:25:20;;;;;;;3.05;0.90;;;5.20;84.30;;;;;;5022766;28;20036;-84
2021/01/26 07:31:17;;;;;;;2.75;0.70;;;5.20;84.40;;;;;;6023372;22;20241;-84
2021/01/26 07:34:16;;;;;;;5.38;1.48;;;5.20;84.40;;;;;;5017821;28;20092;-84
2021/01/26 07:37:18;;;;;;;3.05;1.10;;;5.20;84.60;;;;;;5012693;28;20131;-86
2021/01/26 07:40:07;;;;;;;3.53;0.90;;;5.10;84.60;;;;;;4995321;23;20148;-85
2021/01/26 07:42:45;;;;;;;2.33;0.80;;;5.20;84.60;;;;;;5015798;28;20541;-85
2021/01/26 07:45:18;;;;;;;2.05;0.80;;;5.10;84.60;;;;;;5015769;28;20030;-84
2021/01/26 07:47:50;;;;;;;2.55;0.70;;;5.10;85.20;;;;;;5003200;28;20120;-84
2021/01/26 07:50:36;;;;;;;2.75;0.90;;;5.20;84.60;;;;;;5013331;28;20030;-85
2021/01/26 07:53:17;;;;;;;1.50;0.80;;;5.20;84.60;;;;;;5020107;28;20037;-88
2021/01/26 07:56:07;;;;;;;4.18;1.02;;;5.20;84.70;;;;;;5018892;28;20029;-86
2021/01/26 07:58:35;;;;;;;2.03;0.80;;;5.10;84.70;;;;;;5005191;28;20088;-84
2021/01/26 08:01:03;;;;;;;1.40;0.80;;;5.10;84.70;;;;;;5017506;28;20060;-87
2021/01/26 08:03:30;;;;;;;2.03;0.90;;;5.10;84.70;;;;;;5012517;28;20049;-91
2021/01/26 08:05:58;;;;;;;1.90;0.80;;;5.10;84.70;;;;;;5019420;28;20026;-88
2021/01/26 08:08:26;;;;;;;5.03;0.90;;;5.20;84.70;;;;;;5031055;28;20037;-92
2021/01/26 08:11:20;;;;;;;3.95;0.93;;;5.20;84.60;;;;;;5035862;28;20019;-89
2021/01/26 08:14:13;;;;;;;2.90;0.90;;;5.10;84.70;;;;;;5014845;28;20379;-87
2021/01/26 08:16:52;;;;;;;2.60;1.05;;;5.10;84.60;;;;;;5008634;28;20057;-88
2021/01/26 08:19:33;;;;;;;1.52;0.90;;;5.10;84.70;;;;;;5023889;28;20052;-88
2021/01/26 08:22:16;;;;;;;2.45;0.90;;;5.10;84.70;;;;;;5014132;28;20057;-86
2021/01/26 08:24:43;;;;;;;1.42;0.90;;;5.10;84.70;;;;;;5014955;28;20020;-88
2021/01/26 08:27:43;;;;;;;2.67;0.70;;;5.20;84.70;;;;;;5011809;28;20030;-88
2021/01/26 08:30:19;;;;;;;1.60;0.85;;;5.20;84.70;;;;;;4984255;28;20041;-90
2021/01/26 08:32:46;;;;;;;2.05;0.70;;;5.20;84.60;;;;;;5011783;28;20038;-88
2021/01/26 08:35:21;;;;;;;3.13;0.80;;;5.20;84.50;;;;;;5013250;28;20018;-87
2021/01/26 08:37:53;;;;;;;2.83;0.88;;;5.10;84.50;;;;;;5008740;28;20026;-88
2021/01/26 08:40:50;;;;;;;1.38;0.77;;;5.20;84.50;;;;;;5014192;28;20475;-89
2021/01/26 08:43:44;;;;;;;1.17;0.65;;;5.20;84.50;;;;;;5023584;28;20037;-89
2021/01/26 08:46:10;;;;;;;2.53;1.00;;;5.30;84.40;;;;;;5020381;28;20022;-88
2021/01/26 08:48:36;;;;;;;3.05;1.02;;;5.30;84.30;;;;;;5020540;28;20038;-88
2021/01/26 08:51:06;;;;;;;0.93;0.80;;;5.40;84.20;;;;;;5029242;28;20045;-90
2021/01/26 08:53:38;;;;;;;1.40;0.80;;;5.40;84.00;;;;;;5032480;28;20025;-88
2021/01/26 08:56:32;;;;;;;2.72;1.20;;;5.40;84.00;;;;;;5023037;28;20032;-87
2021/01/26 08:59:00;;;;;;;0.60;0.60;;;5.50;84.00;;;;;;5010296;28;20034;-88
2021/01/26 09:01:35;;;;;;;3.33;0.85;;;5.50;83.90;;;;;;5017491;28;20084;-87
2021/01/26 09:04:29;;;;;;;3.22;0.85;;;5.50;83.80;;;;;;5016016;28;20099;-87
2021/01/26 09:15:56;;;;;;;1.95;0.80;;;5.80;83.60;;;;;;5001837;28;20049;-88
2021/01/26 09:21:40;;;;;;;2.47;1.00;;;5.80;83.30;;;;;;4989102;28;20391;-87
2021/01/26 09:24:32;;;;;;;1.65;0.80;;;5.90;83.30;;;;;;4994676;28;20081;-88
2021/01/26 09:34:34;;;;;;;;;;;;;;;;;;;;;
2021/01/26 09:37:46;;;;;;;2.75;0.90;;;6.00;83.20;;;;;;4946748;28;20032;-87
2021/01/26 09:40:44;;;;;;;1.95;0.80;;;6.10;83.10;;;;;;4951678;28;20080;-89
2021/01/26 09:43:52;;;;;;;3.63;0.90;;;6.10;83.00;;;;;;4933374;29;20028;-89
2021/01/26 09:47:01;;;;;;;1.35;0.90;;;6.10;83.00;;;;;;4949903;28;20039;-90
2021/01/26 09:50:00;;;;;;;1.23;0.80;;;6.10;83.00;;;;;;4989520;28;20753;-88
2021/01/26 09:52:59;;;;;;;3.60;1.00;;;6.20;83.00;;;;;;4982102;28;20028;-88
2021/01/26 09:56:01;;;;;;;1.67;0.70;;;6.10;82.80;;;;;;4941039;28;20039;-88
2021/01/26 09:59:34;;;;;;;2.50;0.90;;;6.10;82.90;;;;;;5140546;22;20042;-87
2021/01/26 10:02:28;;;;;;;2.90;1.00;;;6.10;83.00;;;;;;4978871;28;20045;-88
2021/01/26 10:08:35;;;;;;;1.75;0.88;;;6.00;83.10;;;;;;5160855;22;20053;-88
2021/01/26 10:11:34;;;;;;;4.60;1.23;;;6.10;83.10;;;;;;4988214;28;20019;-86
2021/01/26 10:14:38;;;;;;;2.45;1.10;;;6.10;83.00;;;;;;4995107;28;20099;-87
2021/01/26 10:21:06;;;;;;;1.88;0.80;;;6.20;83.00;;;;;;4988063;28;19910;-87
2021/01/26 10:24:04;;;;;;;3.97;0.98;;;6.30;83.00;;;;;;4971558;28;20038;-88
2021/01/26 10:27:10;;;;;;;2.22;1.00;;;6.30;82.90;;;;;;4988788;28;20030;-88
2021/01/26 10:29:48;;;;;;;4.13;1.55;;;6.40;82.70;;;;;;4992967;28;20047;-88
2021/01/26 10:33:17;;;;;;;;;;;;;;;;;;;;;
2021/01/26 10:41:43;;;;;;;3.13;1.08;;;6.30;82.40;;;;;;4996637;22;20078;-88
2021/01/26 10:44:26;;;;;;;3.28;1.00;;;6.40;82.50;;;;;;4980444;28;20332;-87
2021/01/26 10:46:56;;;;;;;1.67;0.95;;;6.40;82.30;;;;;;4948891;28;20575;-87
2021/01/26 10:55:55;;;;;;;2.60;1.20;;;6.70;82.00;;;;;;4876792;29;20136;-89
2021/01/26 10:58:26;;;;;;;1.25;0.77;;;6.70;81.80;;;;;;4867965;29;20068;-89
2021/01/26 11:01:25;;;;;;;;;;;;;;;;;;;;;
2021/01/26 11:04:32;;;;;;;3.92;1.20;;;6.80;81.70;;;;;;4886687;28;20031;-87
2021/01/26 11:07:02;;;;;;;3.70;1.02;;;6.80;81.40;;;;;;4938863;29;20024;-87
2021/01/26 11:09:37;;;;;;;2.75;1.00;;;6.80;81.30;;;;;;4933835;29;20142;-88
2021/01/26 11:12:06;;;;;;;2.78;1.13;;;6.90;81.30;;;;;;4954371;29;20031;-88
2021/01/26 11:14:37;;;;;;;2.30;1.00;;;6.90;81.20;;;;;;4948305;28;20051;-89
2021/01/26 11:17:12;;;;;;;1.83;1.08;;;6.90;81.00;;;;;;4939734;28;20480;-89
2021/01/26 11:19:41;;;;;;;2.63;1.13;;;7.00;81.00;;;;;;4958520;28;20043;-90
2021/01/26 11:22:13;;;;;;;3.55;1.20;;;7.00;80.60;;;;;;4956132;28;20170;-89
2021/01/26 11:24:45;;;;;;;1.73;1.20;;;7.00;80.50;;;;;;4935941;29;20114;-87
2021/01/26 11:27:11;;;;;;;3.83;1.23;;;7.10;80.40;;;;;;4953275;28;20046;-88
2021/01/26 11:29:37;;;;;;;3.60;1.30;;;7.00;80.20;;;;;;4934831;28;20146;-89
2021/01/26 11:32:04;;;;;;;3.75;1.20;;;7.10;80.10;;;;;;4955056;28;20106;-89
2021/01/26 11:34:30;;;;;;;6.57;1.00;;;7.10;80.10;;;;;;4956367;28;20038;-88
2021/01/26 11:37:02;;;;;;;1.92;1.00;;;7.10;80.10;;;;;;4956636;28;20146;-89
2021/01/26 11:39:27;;;;;;;3.10;0.93;;;7.20;80.10;;;;;;4943114;28;20031;-90
2021/01/26 11:41:53;;;;;;;3.25;1.30;;;7.20;80.00;;;;;;4963618;29;20402;-89
2021/01/26 11:44:19;;;;;;;4.40;1.30;;;7.20;79.80;;;;;;4962696;28;20035;-89
2021/01/26 11:46:44;;;;;;;1.85;1.20;;;7.30;79.70;;;;;;4963085;28;20034;-88
2021/01/26 11:49:10;;;;;;;2.05;1.00;;;7.30;79.70;;;;;;4960156;29;20067;-88
2021/01/26 11:51:36;;;;;;;2.70;0.93;;;7.40;79.60;;;;;;4967924;28;20054;-88
2021/01/26 11:54:01;;;;;;;2.92;1.20;;;7.50;79.40;;;;;;4958286;28;20023;-88
2021/01/26 11:56:27;;;;;;;2.30;1.10;;;7.60;79.30;;;;;;4939338;28;20082;-89
2021/01/26 11:58:53;;;;;;;2.10;1.20;;;7.70;79.20;;;;;;4959246;29;20027;-89
2021/01/26 12:01:19;;;;;;;2.15;0.90;;;7.70;78.90;;;;;;4953144;28;20163;-89
2021/01/26 12:03:45;;;;;;;2.42;1.00;;;7.80;78.60;;;;;;4952437;29;20050;-87
2021/01/26 12:06:11;;;;;;;1.88;1.10;;;7.90;78.50;;;;;;4958948;28;20586;-88
2021/01/26 12:08:38;;;;;;;2.42;1.08;;;7.90;78.20;;;;;;4957246;28;20070;-90
2021/01/26 12:11:04;;;;;;;4.13;1.20;;;7.90;78.10;;;;;;4938427;29;20476;-89
2021/01/26 12:13:31;;;;;;;3.38;1.00;;;7.90;78.00;;;;;;4958789;29;20124;-87
2021/01/26 12:15:57;;;;;;;3.00;1.10;;;7.90;78.00;;;;;;4965985;28;20380;-88
2021/01/26 12:18:22;;;;;;;3.97;1.20;;;8.00;77.80;;;;;;4965013;28;20034;-88
2021/01/26 12:20:48;;;;;;;4.72;1.30;;;8.10;77.60;;;;;;4956798;29;20177;-89
2021/01/26 12:23:14;;;;;;;5.38;1.33;;;8.00;77.20;;;;;;4938020;29;20027;-89
2021/01/26 12:25:40;;;;;;;4.88;1.30;;;8.00;77.20;;;;;;4964924;28;20034;-86
2021/01/26 12:28:07;;;;;;;4.07;1.10;;;8.00;77.20;;;;;;4938757;28;20019;-88
2021/01/26 12:30:33;;;;;;;2.08;1.00;;;8.00;77.30;;;;;;4958546;28;20019;-88
2021/01/26 12:32:59;;;;;;;2.13;0.85;;;8.00;77.10;;;;;;4943931;28;20038;-91
2021/01/26 12:35:27;;;;;;;1.42;1.00;;;7.90;77.20;;;;;;4943909;28;20038;-90
2021/01/26 12:37:52;;;;;;;2.75;1.10;;;7.90;77.30;;;;;;4968739;28;20030;-89
2021/01/26 12:40:19;;;;;;;2.85;1.00;;;7.90;77.20;;;;;;4978959;28;20030;-91
2021/01/26 12:42:44;;;;;;;1.35;0.90;;;7.90;77.20;;;;;;4951336;28;20040;-90
2021/01/26 12:45:11;;;;;;;3.33;0.95;;;7.80;77.10;;;;;;4957972;28;20043;-92
2021/01/26 12:47:38;;;;;;;3.08;0.90;;;7.80;77.10;;;;;;4974803;28;20557;-91
2021/01/26 12:50:06;;;;;;;1.35;0.70;;;7.80;77.30;;;;;;4957635;28;20027;-91
2021/01/26 12:52:31;;;;;;;2.70;0.80;;;7.80;77.30;;;;;;4969584;28;20074;-92
2021/01/26 12:54:57;;;;;;;1.30;0.93;;;7.80;77.30;;;;;;4952906;28;20023;-92
2021/01/26 12:57:34;;;;;;;2.17;0.85;;;7.90;77.00;;;;;;5025826;22;20049;-91
2021/01/26 13:00:08;;;;;;;2.00;1.00;;;7.90;76.80;;;;;;4986618;28;20044;-93
2021/01/26 13:02:36;;;;;;;1.95;0.95;;;8.00;76.80;;;;;;5004183;28;20022;-90
2021/01/26 13:05:03;;;;;;;1.88;1.00;;;8.00;76.70;;;;;;5014118;28;20022;-93
2021/01/26 13:07:42;;;;;;;1.55;0.80;;;8.00;76.70;;;;;;5012749;28;20049;-91
2021/01/26 13:10:12;;;;;;;4.00;1.13;;;7.90;76.60;;;;;;5002021;28;20029;-92
2021/01/26 13:12:50;;;;;;;2.97;1.10;;;7.90;76.70;;;;;;4999348;28;20025;-89
2021/01/26 13:15:18;;;;;;;2.55;0.90;;;7.80;76.60;;;;;;4997609;28;20029;-91
2021/01/26 13:17:44;;;;;;;2.53;0.82;;;7.70;76.40;;;;;;4997228;28;20446;-92
2021/01/26 13:20:13;;;;;;;2.20;0.90;;;7.70;76.40;;;;;;4998739;28;20057;-93
2021/01/26 13:22:39;;;;;;;1.65;0.70;;;7.60;76.40;;;;;;5000257;28;20026;-91
2021/01/26 13:25:21;;;;;;;3.53;1.00;;;7.60;76.60;;;;;;4998840;28;20026;-91
2021/01/26 13:27:47;;;;;;;3.70;0.95;;;7.60;76.60;;;;;;4992983;28;20050;-91
2021/01/26 13:30:38;;;;;;;1.88;1.15;;;7.60;76.60;;;;;;5001810;28;20032;-90
2021/01/26 13:33:04;;;;;;;2.90;1.20;;;7.60;76.70;;;;;;4973749;28;20034;-92
2021/01/26 13:38:51;;;;;;;3.35;0.95;;;7.60;76.90;;;;;;4974862;28;20050;-93
2021/01/26 13:41:17;;;;;;;2.78;1.10;;;7.60;77.00;;;;;;4969772;28;20039;-94
2021/01/26 13:43:54;;;;;;;2.90;1.33;;;7.50;77.00;;;;;;4970017;28;20452;-91
2021/01/26 13:46:20;;;;;;;2.60;1.40;;;7.60;77.10;;;;;;4969485;28;20500;-87
2021/01/26 13:48:55;;;;;;;3.97;1.35;;;7.50;77.00;;;;;;4991258;28;20149;-88
2021/01/26 13:51:20;;;;;;;2.15;1.20;;;7.50;77.00;;;;;;4994577;28;20077;-88
2021/01/26 13:53:49;;;;;;;2.38;1.15;;;7.40;77.00;;;;;;4990953;28;20034;-88
2021/01/26 13:56:22;;;;;;;1.27;0.80;;;7.40;77.10;;;;;;4990709;28;20081;-88
2021/01/26 13:58:52;;;;;;;2.08;1.10;;;7.40;77.20;;;;;;4990949;28;20018;-89
2021/01/26 14:01:24;;;;;;;1.95;0.90;;;7.40;77.10;;;;;;4991366;28;20050;-87
2021/01/26 14:03:55;;;;;;;2.30;1.05;;;7.40;77.20;;;;;;4983574;28;20081;-86
2021/01/26 14:06:22;;;;;;;3.25;1.00;;;7.30;77.00;;;;;;4989232;28;20026;-85
2021/01/26 14:08:48;;;;;;;2.60;1.02;;;7.30;77.10;;;;;;4987431;28;20027;-85
2021/01/26 14:11:13;;;;;;;1.80;0.80;;;7.30;77.10;;;;;;4989704;28;20033;-86
2021/01/26 14:13:39;;;;;;;3.28;1.20;;;7.30;77.00;;;;;;4989445;28;20069;-86
2021/01/26 14:16:10;;;;;;;2.72;1.00;;;7.40;77.00;;;;;;4987867;28;20093;-88
2021/01/26 14:18:36;;;;;;;1.17;1.02;;;7.20;76.90;;;;;;4994342;28;20026;-87
2021/01/26 14:21:02;;;;;;;1.30;0.90;;;7.20;77.10;;;;;;4993450;28;20026;-91
2021/01/26 14:23:28;;;;;;;2.90;1.20;;;7.20;77.10;;;;;;4993747;28;20033;-91
2021/01/26 14:25:53;;;;;;;3.55;1.52;;;7.10;76.80;;;;;;4999834;28;20025;-91
2021/01/26 14:28:19;;;;;;;3.17;2.63;;;7.10;76.80;;;;;;5002223;28;20040;-91
2021/01/26 14:30:51;;;;;;;3.60;3.30;;;7.00;76.80;;;;;;5003408;28;20503;-90